Time;durP1;ratioP1;P1;durP2;ratioP2;P2;SDS_P1;SDS_P2;PMS_P1;PMS_P2;Temp;Humidity;BMP_temperature;BMP_pressure;BME280_temperature;BME280_humidity;BME280_pressure;Samples;Min_cycle;Max_cycle;Signal;HPM_P1;HPM_P2
2022/04/08 00:00:22;;;;;;;8.30;3.53;;;;;;;;;;4994727;28;20182;-55
2022/04/08 00:02:50;;;;;;;13.53;3.47;;;;;;;;;;4980789;28;20200;-54
2022/04/08 00:05:15;;;;;;;7.60;3.00;;;;;;;;;;4985187;28;20275;-55
2022/04/08 00:07:43;;;;;;;7.53;2.90;;;;;;;;;;4977659;28;20857;-55
2022/04/08 00:10:09;;;;;;;4.93;2.53;;;;;;;;;;4985068;28;20799;-55
2022/04/08 00:12:35;;;;;;;4.87;2.40;;;;;;;;;;4985087;28;20241;-55
2022/04/08 00:15:01;;;;;;;5.73;2.40;;;;;;;;;;4987590;28;20341;-55
2022/04/08 00:17:27;;;;;;;2.70;2.00;;;;;;;;;;4988181;28;20788;-55
2022/04/08 00:19:52;;;;;;;3.40;2.40;;;;;;;;;;4979383;28;20275;-55
2022/04/08 00:22:20;;;;;;;3.30;1.70;;;;;;;;;;4981392;28;20938;-54
2022/04/08 00:24:46;;;;;;;2.80;1.77;;;;;;;;;;4986158;28;20616;-55
2022/04/08 00:27:12;;;;;;;3.00;1.70;;;;;;;;;;4998725;28;20278;-54
2022/04/08 00:29:38;;;;;;;3.50;1.77;;;;;;;;;;5004767;28;20838;-55
2022/04/08 00:32:04;;;;;;;2.23;1.90;;;;;;;;;;4989881;28;20229;-55
2022/04/08 00:34:30;;;;;;;2.97;2.20;;;;;;;;;;4996171;28;20242;-54
2022/04/08 00:36:56;;;;;;;2.37;1.80;;;;;;;;;;4994831;28;20219;-56
2022/04/08 00:39:22;;;;;;;5.33;2.00;;;;;;;;;;4996127;28;20585;-54
2022/04/08 00:41:48;;;;;;;3.40;1.90;;;;;;;;;;4983533;28;20769;-55
2022/04/08 00:44:14;;;;;;;2.13;2.00;;;;;;;;;;4979141;28;20201;-55
2022/04/08 00:46:40;;;;;;;3.17;1.90;;;;;;;;;;4979506;28;20279;-54
2022/04/08 00:49:06;;;;;;;1.83;1.73;;;;;;;;;;4980754;28;20201;-55
2022/04/08 00:51:35;;;;;;;5.17;2.00;;;;;;;;;;4994211;28;20659;-56
2022/04/08 00:54:02;;;;;;;3.30;1.80;;;;;;;;;;4997461;28;20268;-55
2022/04/08 00:56:31;;;;;;;3.17;1.77;;;;;;;;;;4997072;28;20201;-54
2022/04/08 00:58:57;;;;;;;4.17;2.00;;;;;;;;;;5000817;28;20193;-55
2022/04/08 01:01:24;;;;;;;2.33;1.50;;;;;;;;;;4991643;28;20670;-55
2022/04/08 01:03:52;;;;;;;3.27;1.80;;;;;;;;;;4986746;28;20551;-54
2022/04/08 01:06:18;;;;;;;6.47;1.70;;;;;;;;;;4991363;28;20255;-55
2022/04/08 01:08:44;;;;;;;3.73;1.73;;;;;;;;;;4998994;28;20181;-54
2022/04/08 01:11:10;;;;;;;5.50;2.00;;;;;;;;;;4992125;28;20197;-55
2022/04/08 01:13:36;;;;;;;8.87;2.63;;;;;;;;;;4980214;28;20248;-55
2022/04/08 01:16:05;;;;;;;2.73;2.00;;;;;;;;;;4979541;28;20189;-55
2022/04/08 01:18:31;;;;;;;5.00;2.57;;;;;;;;;;4981216;28;20189;-55
2022/04/08 01:20:57;;;;;;;7.67;2.47;;;;;;;;;;4982642;28;20936;-55
2022/04/08 01:23:23;;;;;;;5.73;2.20;;;;;;;;;;4981388;28;20193;-55
2022/04/08 01:25:49;;;;;;;7.77;2.70;;;;;;;;;;4995454;28;20193;-54
2022/04/08 01:28:15;;;;;;;9.00;2.70;;;;;;;;;;4993531;28;20324;-55
2022/04/08 01:30:41;;;;;;;6.83;2.50;;;;;;;;;;4991199;28;20216;-55
2022/04/08 01:33:07;;;;;;;6.43;2.50;;;;;;;;;;4987375;28;20221;-54
2022/04/08 01:35:34;;;;;;;7.70;2.33;;;;;;;;;;4995360;28;20255;-55
2022/04/08 01:38:00;;;;;;;6.73;2.60;;;;;;;;;;4999730;28;20182;-54
2022/04/08 01:40:26;;;;;;;5.80;2.57;;;;;;;;;;4993122;28;20193;-55
2022/04/08 01:42:52;;;;;;;4.77;2.40;;;;;;;;;;4990687;28;20202;-55
2022/04/08 01:45:18;;;;;;;7.20;2.90;;;;;;;;;;4990235;28;20192;-55
2022/04/08 01:47:44;;;;;;;6.70;2.80;;;;;;;;;;4993603;28;20732;-54
2022/04/08 01:50:10;;;;;;;7.53;2.60;;;;;;;;;;4995401;28;20197;-55
2022/04/08 01:52:36;;;;;;;8.33;3.30;;;;;;;;;;4992173;28;20700;-55
2022/04/08 01:55:05;;;;;;;7.90;2.80;;;;;;;;;;4995294;28;20197;-54
2022/04/08 01:57:31;;;;;;;7.30;2.50;;;;;;;;;;4993059;28;20284;-55
2022/04/08 01:59:56;;;;;;;7.23;2.70;;;;;;;;;;5009991;28;20666;-54
2022/04/08 02:02:22;;;;;;;10.33;2.73;;;;;;;;;;4999386;28;20769;-55
2022/04/08 02:04:48;;;;;;;4.60;2.90;;;;;;;;;;5002306;28;20185;-54
2022/04/08 02:07:14;;;;;;;10.73;2.93;;;;;;;;;;4998093;28;20224;-55
2022/04/08 02:09:40;;;;;;;8.57;3.13;;;;;;;;;;4997503;28;20202;-55
2022/04/08 02:12:06;;;;;;;7.03;3.17;;;;;;;;;;4995101;28;21133;-53
2022/04/08 02:14:32;;;;;;;7.47;3.23;;;;;;;;;;5002224;28;20181;-54
2022/04/08 02:16:58;;;;;;;6.03;3.03;;;;;;;;;;5004609;28;20244;-55
2022/04/08 02:19:24;;;;;;;9.17;3.60;;;;;;;;;;5003224;28;20276;-55
2022/04/08 02:21:51;;;;;;;5.67;2.93;;;;;;;;;;5005599;28;20220;-55
2022/04/08 02:24:17;;;;;;;6.93;3.37;;;;;;;;;;5004380;28;20583;-55
2022/04/08 02:26:43;;;;;;;4.90;2.90;;;;;;;;;;4998905;28;20198;-54
2022/04/08 02:29:09;;;;;;;6.40;3.17;;;;;;;;;;4996650;28;20245;-54
2022/04/08 02:31:35;;;;;;;7.67;3.90;;;;;;;;;;5001704;28;20739;-55
2022/04/08 02:34:01;;;;;;;5.83;3.53;;;;;;;;;;4997915;28;20197;-55
2022/04/08 02:36:27;;;;;;;7.53;3.83;;;;;;;;;;5001483;28;20276;-55
2022/04/08 02:38:53;;;;;;;8.10;4.10;;;;;;;;;;4995756;28;20193;-54
2022/04/08 02:41:19;;;;;;;8.50;4.10;;;;;;;;;;4999625;28;21070;-53
2022/04/08 02:43:45;;;;;;;12.60;5.07;;;;;;;;;;4990720;28;20197;-55
2022/04/08 02:46:11;;;;;;;9.30;4.53;;;;;;;;;;4994327;28;20193;-54
2022/04/08 02:48:37;;;;;;;4.97;4.47;;;;;;;;;;4996136;28;20197;-54
2022/04/08 02:51:03;;;;;;;9.37;4.30;;;;;;;;;;4992996;28;20541;-54
2022/04/08 02:53:29;;;;;;;9.03;4.77;;;;;;;;;;4993219;28;20641;-54
2022/04/08 02:55:55;;;;;;;7.83;4.40;;;;;;;;;;4992731;28;20729;-54
2022/04/08 02:58:20;;;;;;;6.33;4.37;;;;;;;;;;4995502;28;20853;-55
2022/04/08 03:00:46;;;;;;;7.63;4.43;;;;;;;;;;4999957;28;20188;-55
2022/04/08 03:03:12;;;;;;;8.23;4.43;;;;;;;;;;5001784;28;20197;-54
2022/04/08 03:05:38;;;;;;;7.53;4.00;;;;;;;;;;4992047;28;20262;-55
2022/04/08 03:08:04;;;;;;;8.30;4.23;;;;;;;;;;4991842;28;20298;-54
2022/04/08 03:10:30;;;;;;;6.73;4.13;;;;;;;;;;4992673;28;20556;-55
2022/04/08 03:12:57;;;;;;;7.40;4.20;;;;;;;;;;4989509;28;20268;-55
2022/04/08 03:15:22;;;;;;;9.30;4.17;;;;;;;;;;4993768;28;20189;-55
2022/04/08 03:17:51;;;;;;;5.30;3.50;;;;;;;;;;4998175;28;20185;-54
2022/04/08 03:20:17;;;;;;;7.70;3.90;;;;;;;;;;4998222;28;20282;-54
2022/04/08 03:22:43;;;;;;;5.97;4.00;;;;;;;;;;4995836;28;20663;-54
2022/04/08 03:25:09;;;;;;;8.17;3.87;;;;;;;;;;5003470;28;20202;-54
2022/04/08 03:27:35;;;;;;;6.43;3.90;;;;;;;;;;4997486;28;20210;-55
2022/04/08 03:30:01;;;;;;;8.53;3.73;;;;;;;;;;5002320;28;20200;-55
2022/04/08 03:32:27;;;;;;;8.20;4.03;;;;;;;;;;4994112;28;20243;-55
2022/04/08 03:34:59;;;;;;;6.27;3.20;;;;;;;;;;4999160;28;20239;-55
2022/04/08 03:37:26;;;;;;;7.30;4.00;;;;;;;;;;4997343;28;20264;-54
2022/04/08 03:39:53;;;;;;;6.20;3.90;;;;;;;;;;4998412;28;20226;-55
2022/04/08 03:42:19;;;;;;;5.50;3.30;;;;;;;;;;4995463;28;20197;-55
2022/04/08 03:44:44;;;;;;;11.57;4.33;;;;;;;;;;4992142;28;20689;-54
2022/04/08 03:47:10;;;;;;;5.63;3.53;;;;;;;;;;4985394;28;20236;-54
2022/04/08 03:49:36;;;;;;;5.03;4.13;;;;;;;;;;4995030;28;20252;-55
2022/04/08 03:52:06;;;;;;;8.50;3.50;;;;;;;;;;4995665;28;20777;-54
2022/04/08 03:54:32;;;;;;;9.20;3.70;;;;;;;;;;4994758;28;20198;-53
2022/04/08 03:56:58;;;;;;;5.87;4.07;;;;;;;;;;4995486;28;20701;-55
2022/04/08 03:59:24;;;;;;;8.97;4.20;;;;;;;;;;4994426;28;21005;-55
2022/04/08 04:01:50;;;;;;;7.37;4.20;;;;;;;;;;4985520;28;20197;-54
2022/04/08 04:04:16;;;;;;;7.57;4.70;;;;;;;;;;4989471;28;20238;-55
2022/04/08 04:06:42;;;;;;;7.20;5.13;;;;;;;;;;4988350;28;20319;-55
2022/04/08 04:09:08;;;;;;;9.60;4.80;;;;;;;;;;4981458;28;20202;-55
2022/04/08 04:11:35;;;;;;;5.80;4.37;;;;;;;;;;4992610;28;20207;-55
2022/04/08 04:14:02;;;;;;;9.00;4.70;;;;;;;;;;4990666;28;22581;-55
2022/04/08 04:16:28;;;;;;;10.97;4.97;;;;;;;;;;4995963;28;21651;-54
2022/04/08 04:18:54;;;;;;;9.60;5.30;;;;;;;;;;4997833;28;20388;-54
2022/04/08 04:21:20;;;;;;;6.10;4.90;;;;;;;;;;4990463;28;20197;-55
2022/04/08 04:23:46;;;;;;;6.50;4.70;;;;;;;;;;4986877;28;20189;-55
2022/04/08 04:26:11;;;;;;;7.40;5.20;;;;;;;;;;4993529;28;20316;-53
2022/04/08 04:28:37;;;;;;;10.07;5.93;;;;;;;;;;4993810;28;20275;-54
2022/04/08 04:31:04;;;;;;;7.40;5.97;;;;;;;;;;4991560;28;20193;-55
2022/04/08 04:33:33;;;;;;;7.80;5.67;;;;;;;;;;4992587;28;20291;-54
2022/04/08 04:35:59;;;;;;;10.23;7.03;;;;;;;;;;4986224;28;20256;-55
2022/04/08 04:38:25;;;;;;;11.30;6.07;;;;;;;;;;4992140;28;20198;-55
2022/04/08 04:40:51;;;;;;;11.17;6.83;;;;;;;;;;4980844;28;20648;-54
2022/04/08 04:43:17;;;;;;;15.50;7.67;;;;;;;;;;4976915;28;20815;-55
2022/04/08 04:45:43;;;;;;;11.63;7.60;;;;;;;;;;5000826;28;20330;-55
2022/04/08 04:48:12;;;;;;;14.27;7.43;;;;;;;;;;4984297;28;20204;-54
2022/04/08 04:50:38;;;;;;;12.57;7.37;;;;;;;;;;4995971;28;20209;-54
2022/04/08 04:53:04;;;;;;;10.93;7.30;;;;;;;;;;4984156;28;21063;-54
2022/04/08 04:55:30;;;;;;;11.80;7.80;;;;;;;;;;4982832;28;20193;-55
2022/04/08 04:57:57;;;;;;;14.57;8.17;;;;;;;;;;4989458;28;20193;-55
2022/04/08 05:00:23;;;;;;;10.53;7.57;;;;;;;;;;4992411;28;20597;-53
2022/04/08 05:02:49;;;;;;;11.33;7.77;;;;;;;;;;4983950;28;20185;-55
2022/04/08 05:05:15;;;;;;;10.10;7.30;;;;;;;;;;4990797;28;20193;-54
2022/04/08 05:07:41;;;;;;;9.73;8.00;;;;;;;;;;4985653;28;20308;-55
2022/04/08 05:10:07;;;;;;;9.87;7.10;;;;;;;;;;4988180;28;20568;-54
2022/04/08 05:12:35;;;;;;;12.43;7.57;;;;;;;;;;4980650;28;20201;-54
2022/04/08 05:15:01;;;;;;;10.77;7.60;;;;;;;;;;4973508;28;20273;-55
2022/04/08 05:17:28;;;;;;;10.07;7.30;;;;;;;;;;4981129;28;20200;-54
2022/04/08 05:19:54;;;;;;;7.60;6.47;;;;;;;;;;4987703;28;20669;-55
2022/04/08 05:22:20;;;;;;;11.07;7.03;;;;;;;;;;4996806;28;20188;-55
2022/04/08 05:24:46;;;;;;;8.27;6.97;;;;;;;;;;5005126;28;20275;-56
2022/04/08 05:27:12;;;;;;;9.13;5.87;;;;;;;;;;5006317;28;20197;-56
2022/04/08 05:29:38;;;;;;;9.00;6.70;;;;;;;;;;4995324;28;20243;-53
2022/04/08 05:32:04;;;;;;;10.13;6.97;;;;;;;;;;4971568;28;20224;-55
2022/04/08 05:34:31;;;;;;;7.77;6.50;;;;;;;;;;4981699;28;20197;-56
2022/04/08 05:36:57;;;;;;;9.87;5.87;;;;;;;;;;4993655;28;20197;-55
2022/04/08 05:39:23;;;;;;;11.60;7.00;;;;;;;;;;4995036;28;20773;-55
2022/04/08 05:41:49;;;;;;;9.13;6.70;;;;;;;;;;4991964;28;20662;-56
2022/04/08 05:44:15;;;;;;;9.47;6.10;;;;;;;;;;4993554;28;20196;-56
2022/04/08 05:46:41;;;;;;;6.57;5.87;;;;;;;;;;4998718;28;20189;-55
2022/04/08 05:49:07;;;;;;;9.17;6.07;;;;;;;;;;4998067;28;20197;-56
2022/04/08 05:51:33;;;;;;;8.10;5.50;;;;;;;;;;4996220;28;20201;-56
2022/04/08 05:53:59;;;;;;;9.80;5.57;;;;;;;;;;4992497;28;20240;-56
2022/04/08 05:56:25;;;;;;;7.40;5.70;;;;;;;;;;4996662;28;22865;-55
2022/04/08 05:58:50;;;;;;;8.03;5.47;;;;;;;;;;4996883;28;25707;-55
2022/04/08 06:01:16;;;;;;;8.10;5.63;;;;;;;;;;5006879;28;20318;-55
2022/04/08 06:03:42;;;;;;;6.47;5.10;;;;;;;;;;5008779;28;20220;-56
2022/04/08 06:06:08;;;;;;;9.03;4.87;;;;;;;;;;5000793;28;20459;-55
2022/04/08 06:08:34;;;;;;;8.00;5.00;;;;;;;;;;4991640;28;20208;-56
2022/04/08 06:11:00;;;;;;;8.60;5.10;;;;;;;;;;4996719;28;20198;-57
2022/04/08 06:13:26;;;;;;;5.43;4.90;;;;;;;;;;4993689;28;20786;-56
2022/04/08 06:15:53;;;;;;;7.77;4.57;;;;;;;;;;4995268;28;20863;-55
2022/04/08 06:18:19;;;;;;;8.77;5.07;;;;;;;;;;4989787;28;20197;-56
2022/04/08 06:20:45;;;;;;;5.17;4.60;;;;;;;;;;4990955;28;20197;-54
2022/04/08 06:23:11;;;;;;;7.80;5.13;;;;;;;;;;4989608;28;20244;-56
2022/04/08 06:25:37;;;;;;;8.13;4.83;;;;;;;;;;4993856;28;20280;-56
2022/04/08 06:28:06;;;;;;;7.87;4.90;;;;;;;;;;4998643;28;20904;-56
2022/04/08 06:30:33;;;;;;;7.17;4.57;;;;;;;;;;4997279;28;20189;-55
2022/04/08 06:32:59;;;;;;;7.13;4.23;;;;;;;;;;5003397;28;20742;-56
2022/04/08 06:35:25;;;;;;;6.97;4.27;;;;;;;;;;5009517;28;20204;-56
2022/04/08 06:37:57;;;;;;;8.33;4.40;;;;;;;;;;5008628;28;20189;-55
2022/04/08 06:40:23;;;;;;;5.93;4.30;;;;;;;;;;5008127;28;20623;-56
2022/04/08 06:42:55;;;;;;;8.13;5.27;;;;;;;;;;5007355;28;20674;-56
2022/04/08 06:45:21;;;;;;;5.70;4.30;;;;;;;;;;5006881;28;20208;-55
2022/04/08 06:47:48;;;;;;;5.67;4.20;;;;;;;;;;5000711;28;20192;-56
2022/04/08 06:50:14;;;;;;;5.03;3.97;;;;;;;;;;5008146;28;20358;-56
2022/04/08 06:52:40;;;;;;;8.07;3.97;;;;;;;;;;5007107;28;20208;-56
2022/04/08 06:55:07;;;;;;;7.43;3.90;;;;;;;;;;5004312;28;20188;-55
2022/04/08 06:57:32;;;;;;;6.87;3.60;;;;;;;;;;4997566;28;20316;-56
2022/04/08 06:59:58;;;;;;;9.60;4.13;;;;;;;;;;4997883;28;20220;-56
2022/04/08 07:02:24;;;;;;;6.90;3.70;;;;;;;;;;5004547;28;20557;-56
2022/04/08 07:04:51;;;;;;;9.07;3.73;;;;;;;;;;5008462;28;21249;-56
2022/04/08 07:07:17;;;;;;;4.60;3.23;;;;;;;;;;5004763;28;20247;-55
2022/04/08 07:09:43;;;;;;;6.73;3.30;;;;;;;;;;5010918;28;20193;-56
2022/04/08 07:12:09;;;;;;;4.20;3.10;;;;;;;;;;5010328;28;20629;-56
2022/04/08 07:14:35;;;;;;;7.07;3.20;;;;;;;;;;5014150;28;20190;-56
2022/04/08 07:17:01;;;;;;;6.80;3.47;;;;;;;;;;5009544;28;20189;-56
2022/04/08 07:19:26;;;;;;;4.57;3.40;;;;;;;;;;5003911;28;20558;-56
2022/04/08 07:21:52;;;;;;;5.90;3.30;;;;;;;;;;5003096;28;20745;-56
2022/04/08 07:24:18;;;;;;;5.77;3.67;;;;;;;;;;5007446;28;20217;-56
2022/04/08 07:26:44;;;;;;;5.80;3.87;;;;;;;;;;4989374;28;20563;-55
2022/04/08 07:29:10;;;;;;;7.47;3.63;;;;;;;;;;4993838;28;20378;-56
2022/04/08 07:31:36;;;;;;;6.07;3.67;;;;;;;;;;5003998;28;20200;-56
2022/04/08 07:34:02;;;;;;;6.73;3.50;;;;;;;;;;4999564;28;20189;-56
2022/04/08 07:36:28;;;;;;;5.60;3.27;;;;;;;;;;5006421;28;20228;-56
2022/04/08 07:38:54;;;;;;;3.67;3.30;;;;;;;;;;5002200;28;20189;-56
2022/04/08 07:41:20;;;;;;;4.27;2.93;;;;;;;;;;5003464;28;20230;-56
2022/04/08 07:43:46;;;;;;;6.90;3.33;;;;;;;;;;5004497;28;20251;-57
2022/04/08 07:46:12;;;;;;;4.37;3.23;;;;;;;;;;5007993;28;20194;-56
2022/04/08 07:48:38;;;;;;;4.90;3.27;;;;;;;;;;5013351;28;20201;-56
2022/04/08 07:51:04;;;;;;;4.10;3.00;;;;;;;;;;5011449;28;20200;-55
2022/04/08 07:53:30;;;;;;;4.67;3.20;;;;;;;;;;4999282;28;20224;-55
2022/04/08 07:55:56;;;;;;;7.13;3.57;;;;;;;;;;4997665;28;20606;-56
2022/04/08 07:58:22;;;;;;;4.30;3.50;;;;;;;;;;5000695;28;20211;-54
2022/04/08 08:00:48;;;;;;;6.83;3.23;;;;;;;;;;5000230;28;20201;-56
2022/04/08 08:03:15;;;;;;;3.67;2.93;;;;;;;;;;4997766;28;21252;-56
2022/04/08 08:05:41;;;;;;;5.90;3.47;;;;;;;;;;4989373;28;20194;-56
2022/04/08 08:08:07;;;;;;;4.73;3.30;;;;;;;;;;4999021;28;20271;-56
2022/04/08 08:10:35;;;;;;;5.73;3.30;;;;;;;;;;4992395;28;20189;-56
2022/04/08 08:13:01;;;;;;;5.43;2.87;;;;;;;;;;4994914;28;20213;-55
2022/04/08 08:15:27;;;;;;;6.43;3.03;;;;;;;;;;4999618;28;20198;-56
2022/04/08 08:17:55;;;;;;;4.17;3.20;;;;;;;;;;4985007;28;20268;-56
2022/04/08 08:20:22;;;;;;;5.47;3.60;;;;;;;;;;5005958;28;20280;-54
2022/04/08 08:22:48;;;;;;;6.50;3.50;;;;;;;;;;5011812;28;20311;-56
2022/04/08 08:25:14;;;;;;;5.37;3.10;;;;;;;;;;5002100;28;20707;-56
2022/04/08 08:27:41;;;;;;;6.20;3.37;;;;;;;;;;5000898;28;20634;-56
2022/04/08 08:30:10;;;;;;;4.93;3.10;;;;;;;;;;4980634;28;20193;-56
2022/04/08 08:32:36;;;;;;;4.90;3.30;;;;;;;;;;4991955;28;20338;-56
2022/04/08 08:35:02;;;;;;;4.30;3.07;;;;;;;;;;4998636;28;20185;-56
2022/04/08 08:37:28;;;;;;;6.90;3.30;;;;;;;;;;4999373;28;20923;-56
2022/04/08 08:39:56;;;;;;;5.90;3.03;;;;;;;;;;4998761;28;20197;-56
2022/04/08 08:42:23;;;;;;;5.37;3.23;;;;;;;;;;4999305;28;20200;-57
2022/04/08 08:44:49;;;;;;;6.90;3.30;;;;;;;;;;4997195;28;20677;-56
2022/04/08 08:47:15;;;;;;;5.37;3.00;;;;;;;;;;5007210;28;20254;-56
2022/04/08 08:49:41;;;;;;;6.00;3.13;;;;;;;;;;5002814;28;20284;-56
2022/04/08 08:52:09;;;;;;;3.90;2.80;;;;;;;;;;5004230;28;20948;-57
2022/04/08 08:54:35;;;;;;;4.73;2.80;;;;;;;;;;4999613;28;20272;-55
2022/04/08 08:57:02;;;;;;;6.17;2.93;;;;;;;;;;5004242;28;20190;-56
2022/04/08 08:59:29;;;;;;;5.93;2.93;;;;;;;;;;4994966;28;20233;-56
2022/04/08 09:02:01;;;;;;;4.97;2.87;;;;;;;;;;5006871;28;20207;-56
2022/04/08 09:04:27;;;;;;;5.13;3.20;;;;;;;;;;5011109;28;20239;-56
2022/04/08 09:06:53;;;;;;;5.37;3.10;;;;;;;;;;5006552;28;20213;-56
2022/04/08 09:09:30;;;;;;;5.97;2.83;;;;;;;;;;5006302;28;20625;-56
2022/04/08 09:11:57;;;;;;;5.70;2.93;;;;;;;;;;5005850;28;20193;-56
2022/04/08 09:14:27;;;;;;;7.33;2.90;;;;;;;;;;5009550;28;20653;-56
2022/04/08 09:17:00;;;;;;;4.63;2.50;;;;;;;;;;5005503;28;20259;-56
2022/04/08 09:19:26;;;;;;;4.03;2.30;;;;;;;;;;4994949;28;20800;-56
2022/04/08 09:21:52;;;;;;;5.20;2.50;;;;;;;;;;4991926;28;20190;-56
2022/04/08 09:24:21;;;;;;;4.37;2.97;;;;;;;;;;5003562;28;20196;-55
2022/04/08 09:26:51;;;;;;;4.93;2.50;;;;;;;;;;5004728;28;21215;-56
2022/04/08 09:29:16;;;;;;;5.13;2.37;;;;;;;;;;5002339;28;20310;-56
2022/04/08 09:31:43;;;;;;;4.53;2.40;;;;;;;;;;5006992;28;20272;-56
2022/04/08 09:34:14;;;;;;;4.83;2.60;;;;;;;;;;5006346;28;20201;-57
2022/04/08 09:36:40;;;;;;;4.33;2.40;;;;;;;;;;5007767;28;20181;-57
2022/04/08 09:39:12;;;;;;;4.40;2.30;;;;;;;;;;5007927;28;20636;-56
2022/04/08 09:41:38;;;;;;;5.67;3.10;;;;;;;;;;5010014;28;20792;-56
2022/04/08 09:44:05;;;;;;;5.10;2.30;;;;;;;;;;5007911;28;20303;-56
2022/04/08 09:46:31;;;;;;;3.03;2.03;;;;;;;;;;5007800;28;20623;-56
2022/04/08 09:48:57;;;;;;;6.37;2.60;;;;;;;;;;4994783;28;20193;-56
2022/04/08 09:51:23;;;;;;;5.37;2.20;;;;;;;;;;4996466;28;20220;-57
2022/04/08 09:53:55;;;;;;;3.47;2.33;;;;;;;;;;4987959;28;20271;-56
2022/04/08 09:56:22;;;;;;;5.27;2.57;;;;;;;;;;4994188;28;20753;-57
2022/04/08 09:58:49;;;;;;;5.93;2.50;;;;;;;;;;5000932;28;20220;-56
2022/04/08 10:01:16;;;;;;;2.93;2.40;;;;;;;;;;5002253;28;20197;-55
2022/04/08 10:03:42;;;;;;;3.53;2.40;;;;;;;;;;5003665;28;20246;-55
2022/04/08 10:06:08;;;;;;;4.07;2.40;;;;;;;;;;5011982;28;20204;-56
2022/04/08 10:08:34;;;;;;;3.77;2.33;;;;;;;;;;5003534;28;20524;-56
2022/04/08 10:11:10;;;;;;;3.63;2.60;;;;;;;;;;5004273;28;20244;-56
2022/04/08 10:13:55;;;;;;;4.97;2.10;;;;;;;;;;5002350;28;20628;-56
2022/04/08 10:16:21;;;;;;;4.07;2.40;;;;;;;;;;5003086;28;20618;-56
2022/04/08 10:18:47;;;;;;;4.80;2.60;;;;;;;;;;5001569;28;20188;-55
2022/04/08 10:21:14;;;;;;;3.77;2.30;;;;;;;;;;5000225;28;20631;-56
2022/04/08 10:23:46;;;;;;;2.77;1.97;;;;;;;;;;4995525;28;20752;-57
2022/04/08 10:26:19;;;;;;;3.27;2.20;;;;;;;;;;4995025;28;20193;-55
2022/04/08 10:28:45;;;;;;;4.90;2.80;;;;;;;;;;4994581;28;20244;-55
2022/04/08 10:31:22;;;;;;;3.67;2.40;;;;;;;;;;5002529;28;20883;-56
2022/04/08 10:33:58;;;;;;;4.77;2.20;;;;;;;;;;5002217;28;20568;-56
2022/04/08 10:36:36;;;;;;;3.83;2.17;;;;;;;;;;4999844;28;20189;-56
2022/04/08 10:39:18;;;;;;;4.30;2.80;;;;;;;;;;4994980;28;20231;-56
2022/04/08 10:41:48;;;;;;;4.73;2.73;;;;;;;;;;5003214;28;20720;-56
2022/04/08 10:44:14;;;;;;;4.90;3.00;;;;;;;;;;5008174;28;20189;-56
2022/04/08 10:46:50;;;;;;;3.63;2.40;;;;;;;;;;4997475;28;20654;-56
2022/04/08 10:49:16;;;;;;;6.90;2.30;;;;;;;;;;4998873;28;20186;-55
2022/04/08 10:51:46;;;;;;;4.67;2.67;;;;;;;;;;5002321;28;20222;-56
2022/04/08 10:54:12;;;;;;;2.83;2.00;;;;;;;;;;5002399;28;20235;-56
2022/04/08 10:56:38;;;;;;;4.43;2.50;;;;;;;;;;4999272;28;20273;-56
2022/04/08 10:59:04;;;;;;;5.10;2.30;;;;;;;;;;4999585;28;20588;-56
2022/04/08 11:01:34;;;;;;;4.30;2.37;;;;;;;;;;5000198;28;20270;-56
2022/04/08 11:04:04;;;;;;;7.17;2.23;;;;;;;;;;5002980;28;20188;-56
2022/04/08 11:06:33;;;;;;;4.10;1.90;;;;;;;;;;5006057;28;20278;-56
2022/04/08 11:09:05;;;;;;;4.73;2.60;;;;;;;;;;4997526;28;20604;-56
2022/04/08 11:11:32;;;;;;;3.47;2.23;;;;;;;;;;4999083;28;21326;-56
2022/04/08 11:13:58;;;;;;;3.83;2.50;;;;;;;;;;5007425;28;20224;-56
2022/04/08 11:16:24;;;;;;;3.03;1.90;;;;;;;;;;5009032;28;20228;-54
2022/04/08 11:18:50;;;;;;;5.13;2.83;;;;;;;;;;5002796;28;20197;-56
2022/04/08 11:21:19;;;;;;;9.60;4.43;;;;;;;;;;4980613;28;20360;-61
2022/04/08 11:23:47;;;;;;;5.87;2.97;;;;;;;;;;4990700;28;20201;-56
2022/04/08 11:26:13;;;;;;;5.47;3.37;;;;;;;;;;4994750;28;20193;-56
2022/04/08 11:28:38;;;;;;;5.03;3.50;;;;;;;;;;5008403;28;20236;-56
2022/04/08 11:31:04;;;;;;;7.03;3.83;;;;;;;;;;4993496;28;20193;-56
2022/04/08 11:33:31;;;;;;;4.97;3.30;;;;;;;;;;4993796;28;20765;-56
2022/04/08 11:35:57;;;;;;;6.03;3.00;;;;;;;;;;4996411;28;20668;-56
2022/04/08 11:38:23;;;;;;;4.27;2.70;;;;;;;;;;4995623;28;20193;-56
2022/04/08 11:40:49;;;;;;;6.60;2.60;;;;;;;;;;5000316;28;20193;-56
2022/04/08 11:43:16;;;;;;;4.57;2.50;;;;;;;;;;5007157;28;21195;-56
2022/04/08 11:45:42;;;;;;;4.13;3.23;;;;;;;;;;5003389;28;21025;-56
2022/04/08 11:48:13;;;;;;;4.23;2.60;;;;;;;;;;4992395;28;20240;-56
2022/04/08 11:50:40;;;;;;;5.07;2.87;;;;;;;;;;5006575;28;20193;-55
2022/04/08 11:53:12;;;;;;;5.00;3.13;;;;;;;;;;5003958;28;20275;-56
2022/04/08 11:55:38;;;;;;;4.87;3.00;;;;;;;;;;5002541;28;20571;-55
2022/04/08 11:58:04;;;;;;;4.60;2.80;;;;;;;;;;5002203;28;20231;-55
2022/04/08 12:00:30;;;;;;;4.77;2.83;;;;;;;;;;5013646;28;20193;-56
2022/04/08 12:02:59;;;;;;;4.60;3.03;;;;;;;;;;5004181;28;20232;-56
2022/04/08 12:05:27;;;;;;;7.43;4.10;;;;;;;;;;5003256;28;20222;-56
2022/04/08 12:07:54;;;;;;;5.67;3.87;;;;;;;;;;5002035;28;20224;-56
2022/04/08 12:10:23;;;;;;;8.47;4.20;;;;;;;;;;5001919;28;20270;-56
2022/04/08 12:12:49;;;;;;;5.53;3.53;;;;;;;;;;5002552;28;20213;-56
2022/04/08 12:15:15;;;;;;;4.53;3.30;;;;;;;;;;5002752;28;20737;-56
2022/04/08 12:17:43;;;;;;;6.60;3.33;;;;;;;;;;5001440;28;21281;-56
2022/04/08 12:20:13;;;;;;;6.33;3.30;;;;;;;;;;5006613;28;20560;-55
2022/04/08 12:22:39;;;;;;;8.13;5.90;;;;;;;;;;4994844;28;20235;-58
2022/04/08 12:25:06;;;;;;;9.70;7.00;;;;;;;;;;4992676;28;20277;-60
2022/04/08 12:27:32;;;;;;;9.50;6.07;;;;;;;;;;5000606;28;20189;-60
2022/04/08 12:30:01;;;;;;;9.27;4.90;;;;;;;;;;4994867;28;20743;-58
2022/04/08 12:32:34;;;;;;;5.67;4.30;;;;;;;;;;4989117;28;20213;-59
2022/04/08 12:35:00;;;;;;;9.83;4.87;;;;;;;;;;5003206;28;20977;-60
2022/04/08 12:37:26;;;;;;;7.47;4.10;;;;;;;;;;4990107;28;20248;-55
2022/04/08 12:39:52;;;;;;;7.73;4.77;;;;;;;;;;4990293;28;20196;-54
2022/04/08 12:42:18;;;;;;;8.87;4.60;;;;;;;;;;4984616;28;20469;-57
2022/04/08 12:44:44;;;;;;;8.93;4.63;;;;;;;;;;4989405;28;20201;-56
2022/04/08 12:47:11;;;;;;;5.97;4.30;;;;;;;;;;5003763;28;20235;-55
2022/04/08 12:49:36;;;;;;;8.57;4.03;;;;;;;;;;5002031;28;20232;-55
2022/04/08 12:52:03;;;;;;;5.30;3.53;;;;;;;;;;4988495;28;20623;-55
2022/04/08 12:54:29;;;;;;;6.90;4.40;;;;;;;;;;4973141;28;20189;-55
2022/04/08 12:56:55;;;;;;;6.00;3.73;;;;;;;;;;4990361;28;20811;-56
2022/04/08 12:59:21;;;;;;;4.90;3.30;;;;;;;;;;4999108;28;20796;-56
2022/04/08 13:01:47;;;;;;;5.37;3.53;;;;;;;;;;5000538;28;20238;-56
2022/04/08 13:04:13;;;;;;;4.90;3.47;;;;;;;;;;5010113;28;20192;-56
2022/04/08 13:06:39;;;;;;;5.23;2.93;;;;;;;;;;5003771;28;20224;-55
2022/04/08 13:09:05;;;;;;;5.77;3.70;;;;;;;;;;5001948;28;20193;-56
2022/04/08 13:11:31;;;;;;;4.80;3.33;;;;;;;;;;5000575;28;20189;-56
2022/04/08 13:13:57;;;;;;;4.37;3.20;;;;;;;;;;5010435;28;20237;-56
2022/04/08 13:16:23;;;;;;;7.20;3.53;;;;;;;;;;5012552;28;20189;-56
2022/04/08 13:18:49;;;;;;;5.33;3.33;;;;;;;;;;5002576;28;20186;-55
2022/04/08 13:21:15;;;;;;;5.30;3.27;;;;;;;;;;4999623;28;20186;-56
2022/04/08 13:23:41;;;;;;;6.80;3.60;;;;;;;;;;5000137;28;20189;-56
2022/04/08 13:26:07;;;;;;;5.73;3.27;;;;;;;;;;4992559;28;20212;-56
2022/04/08 13:28:33;;;;;;;7.57;3.77;;;;;;;;;;4992912;28;20233;-55
2022/04/08 13:30:59;;;;;;;5.67;3.90;;;;;;;;;;4985588;28;20216;-56
2022/04/08 13:33:25;;;;;;;11.27;6.13;;;;;;;;;;4995981;28;20244;-56
2022/04/08 13:35:55;;;;;;;10.20;5.60;;;;;;;;;;5001377;28;20225;-55
2022/04/08 13:38:22;;;;;;;6.73;4.67;;;;;;;;;;5000192;28;20308;-56
2022/04/08 13:40:48;;;;;;;10.30;4.70;;;;;;;;;;4992475;28;20660;-56
2022/04/08 13:43:14;;;;;;;8.03;5.13;;;;;;;;;;5005144;28;20190;-56
2022/04/08 13:45:40;;;;;;;6.30;4.60;;;;;;;;;;5008110;28;20276;-56
2022/04/08 13:48:06;;;;;;;5.47;4.60;;;;;;;;;;5010050;28;20228;-55
2022/04/08 13:50:32;;;;;;;6.20;3.77;;;;;;;;;;5000561;28;20197;-56
2022/04/08 13:52:58;;;;;;;6.73;4.00;;;;;;;;;;5009114;28;20252;-56
2022/04/08 13:55:24;;;;;;;6.07;3.93;;;;;;;;;;5004435;28;20200;-56
2022/04/08 13:57:50;;;;;;;6.53;3.70;;;;;;;;;;4985992;28;20202;-56
2022/04/08 14:00:16;;;;;;;6.73;3.70;;;;;;;;;;4987600;28;20857;-55
2022/04/08 14:02:42;;;;;;;5.60;3.17;;;;;;;;;;4994883;28;20277;-56
2022/04/08 14:05:08;;;;;;;7.07;3.50;;;;;;;;;;5000413;28;20185;-56
2022/04/08 14:07:34;;;;;;;5.73;3.17;;;;;;;;;;4998971;28;20236;-55
2022/04/08 14:10:00;;;;;;;6.87;3.13;;;;;;;;;;4998876;28;20301;-55
2022/04/08 14:12:26;;;;;;;4.50;2.90;;;;;;;;;;5000060;28;20219;-56
2022/04/08 14:14:52;;;;;;;4.37;2.83;;;;;;;;;;5008418;28;20244;-56
2022/04/08 14:17:18;;;;;;;4.67;2.60;;;;;;;;;;5010170;28;20287;-55
2022/04/08 14:19:44;;;;;;;3.50;2.33;;;;;;;;;;5003132;28;20193;-56
2022/04/08 14:22:10;;;;;;;4.63;2.70;;;;;;;;;;4996978;28;20201;-56
2022/04/08 14:24:36;;;;;;;3.03;2.30;;;;;;;;;;4990668;28;20205;-56
2022/04/08 14:27:02;;;;;;;4.30;2.30;;;;;;;;;;4996361;28;20546;-56
2022/04/08 14:29:28;;;;;;;5.07;2.67;;;;;;;;;;5002763;28;20241;-56
2022/04/08 14:31:54;;;;;;;4.73;2.53;;;;;;;;;;5009842;28;20198;-56
2022/04/08 14:34:20;;;;;;;3.53;2.27;;;;;;;;;;5004224;28;20185;-56
2022/04/08 14:36:47;;;;;;;3.47;2.37;;;;;;;;;;5007183;28;20244;-56
2022/04/08 14:39:13;;;;;;;3.33;2.60;;;;;;;;;;5007196;28;20196;-55